createdAt,value
2023-03-31T00:00:48.167Z,990.95
2023-03-31T00:01:48.289Z,990.95
2023-03-31T00:02:48.249Z,990.92
2023-03-31T00:03:48.260Z,990.96
2023-03-31T00:04:48.176Z,990.89
2023-03-31T00:05:48.238Z,990.90
2023-03-31T00:06:48.116Z,990.91
2023-03-31T00:07:48.143Z,990.88
2023-03-31T00:08:48.135Z,990.91
2023-03-31T00:09:48.089Z,990.85
2023-03-31T00:10:48.073Z,990.78
2023-03-31T00:11:48.096Z,990.73
2023-03-31T00:12:48.104Z,990.72
2023-03-31T00:13:48.079Z,990.75
2023-03-31T00:14:48.077Z,990.74
2023-03-31T00:15:48.076Z,990.72
2023-03-31T00:16:48.132Z,990.71
2023-03-31T00:17:48.082Z,990.72
2023-03-31T00:18:48.085Z,990.70
2023-03-31T00:19:48.042Z,990.64
2023-03-31T00:20:48.034Z,990.65
2023-03-31T00:21:48.018Z,990.68
2023-03-31T00:22:47.993Z,990.65
2023-03-31T00:23:47.980Z,990.69
2023-03-31T00:24:48.114Z,990.61
2023-03-31T00:25:47.964Z,990.59
2023-03-31T00:26:47.981Z,990.61
2023-03-31T00:27:47.968Z,990.55
2023-03-31T00:28:47.937Z,990.56
2023-03-31T00:29:47.956Z,990.54
2023-03-31T00:30:47.994Z,990.50
2023-03-31T00:31:47.987Z,990.47
2023-03-31T00:32:47.979Z,990.46
2023-03-31T00:33:47.941Z,990.48
2023-03-31T00:34:47.911Z,990.47
2023-03-31T00:35:47.930Z,990.46
2023-03-31T00:36:48.030Z,990.49
2023-03-31T00:37:47.892Z,990.47
2023-03-31T00:38:47.905Z,990.45
2023-03-31T00:39:47.886Z,990.41
2023-03-31T00:40:47.870Z,990.40
2023-03-31T00:41:47.848Z,990.45
2023-03-31T00:42:47.885Z,990.36
2023-03-31T00:43:47.831Z,990.37
2023-03-31T00:44:47.858Z,990.41
2023-03-31T00:45:48.840Z,990.35
2023-03-31T00:46:47.829Z,990.39
2023-03-31T00:47:47.910Z,990.34
2023-03-31T00:48:47.788Z,990.34
2023-03-31T00:49:47.797Z,990.34
2023-03-31T00:50:47.796Z,990.29
2023-03-31T00:51:47.832Z,990.30
2023-03-31T00:52:47.757Z,990.28
2023-03-31T00:53:47.777Z,990.27
2023-03-31T00:54:47.757Z,990.29
2023-03-31T00:55:47.761Z,990.25
2023-03-31T00:56:48.777Z,990.24
2023-03-31T00:57:47.714Z,990.25
2023-03-31T00:58:47.739Z,990.21
2023-03-31T00:59:47.743Z,990.15
2023-03-31T01:00:47.697Z,990.13
2023-03-31T01:01:47.736Z,990.13
2023-03-31T01:02:47.733Z,990.14
2023-03-31T01:03:47.692Z,990.09
2023-03-31T01:04:47.681Z,990.04
2023-03-31T01:05:47.653Z,990.08
2023-03-31T01:06:47.662Z,990.08
2023-03-31T01:07:47.733Z,990.08
2023-03-31T01:08:47.687Z,990.05
2023-03-31T01:09:47.687Z,990.01
2023-03-31T01:10:47.673Z,990.05
2023-03-31T01:11:47.628Z,990.00
2023-03-31T01:12:47.617Z,989.98
2023-03-31T01:13:47.603Z,989.94
2023-03-31T01:14:47.612Z,989.97
2023-03-31T01:15:47.598Z,989.92
2023-03-31T01:16:47.651Z,989.96
2023-03-31T01:17:47.758Z,989.92
2023-03-31T01:18:47.594Z,989.91
2023-03-31T01:19:47.592Z,989.85
2023-03-31T01:20:47.534Z,989.90
2023-03-31T01:21:47.573Z,989.83
2023-03-31T01:22:47.545Z,989.86
2023-03-31T01:23:47.556Z,989.82
2023-03-31T01:24:47.523Z,989.74
2023-03-31T01:25:47.518Z,989.79
2023-03-31T01:26:47.489Z,989.76
2023-03-31T01:27:47.500Z,989.77
2023-03-31T01:28:47.479Z,989.68
2023-03-31T01:29:47.481Z,989.71
2023-03-31T01:30:47.486Z,989.69
2023-03-31T01:31:47.534Z,989.63
2023-03-31T01:32:47.511Z,989.61
2023-03-31T01:33:47.475Z,989.57
2023-03-31T01:34:47.450Z,989.56
2023-03-31T01:35:47.520Z,989.54
2023-03-31T01:36:48.247Z,989.50
2023-03-31T01:37:47.418Z,989.42
2023-03-31T01:38:47.433Z,989.41
2023-03-31T01:39:47.413Z,989.42
2023-03-31T01:40:47.441Z,989.45
2023-03-31T01:41:47.387Z,989.41
2023-03-31T01:42:47.368Z,989.39
2023-03-31T01:43:47.385Z,989.38
2023-03-31T01:44:47.369Z,989.32
2023-03-31T01:45:47.373Z,989.26
2023-03-31T01:46:47.416Z,989.24
2023-03-31T01:47:47.436Z,989.22
2023-03-31T01:48:47.328Z,989.21
2023-03-31T01:49:47.317Z,989.23
2023-03-31T01:50:48.263Z,989.23
2023-03-31T01:51:47.362Z,989.17
2023-03-31T01:52:47.315Z,989.18
2023-03-31T01:53:47.306Z,989.15
2023-03-31T01:54:47.287Z,989.17
2023-03-31T01:55:47.374Z,989.15
2023-03-31T01:56:47.333Z,989.12
2023-03-31T01:57:47.312Z,989.11
2023-03-31T01:58:47.247Z,989.04
2023-03-31T01:59:47.265Z,989.01
2023-03-31T02:00:47.233Z,989.06
2023-03-31T02:01:47.270Z,989.08
2023-03-31T02:02:47.319Z,989.05
2023-03-31T02:04:19.698Z,989.05
2023-03-31T02:04:47.220Z,989.07
2023-03-31T02:05:48.179Z,989.02
2023-03-31T02:07:19.717Z,988.98
2023-03-31T02:08:19.177Z,988.94
2023-03-31T02:09:19.783Z,988.96
2023-03-31T02:10:19.123Z,988.94
2023-03-31T02:11:19.830Z,988.97
2023-03-31T02:11:47.892Z,988.95
2023-03-31T02:12:47.180Z,988.90
2023-03-31T02:13:47.125Z,988.93
2023-03-31T02:14:47.162Z,988.92
2023-03-31T02:15:47.162Z,988.90
2023-03-31T02:16:47.222Z,988.89
2023-03-31T02:17:47.180Z,988.81
2023-03-31T02:18:47.126Z,988.86
2023-03-31T02:19:47.091Z,988.82
2023-03-31T02:20:47.131Z,988.84
2023-03-31T02:21:47.074Z,988.84
2023-03-31T02:22:47.073Z,988.81
2023-03-31T02:23:47.065Z,988.83
2023-03-31T02:24:47.057Z,988.80
2023-03-31T02:25:47.103Z,988.85
2023-03-31T02:26:47.086Z,988.85
2023-03-31T02:27:47.067Z,988.84
2023-03-31T02:28:47.054Z,988.77
2023-03-31T02:29:47.050Z,988.78
2023-03-31T02:30:47.021Z,988.80
2023-03-31T02:31:47.036Z,988.80
2023-03-31T02:32:47.134Z,988.83
2023-03-31T02:33:46.982Z,988.84
2023-03-31T02:34:47.006Z,988.76
2023-03-31T02:35:47.051Z,988.74
2023-03-31T02:36:46.957Z,988.72
2023-03-31T02:37:46.955Z,988.68
2023-03-31T02:38:47.891Z,988.61
2023-03-31T02:39:46.947Z,988.59
2023-03-31T02:40:46.959Z,988.58
2023-03-31T02:41:46.970Z,988.54
2023-03-31T02:42:46.923Z,988.47
2023-03-31T02:43:46.905Z,988.47
2023-03-31T02:44:46.907Z,988.45
2023-03-31T02:45:46.950Z,988.46
2023-03-31T02:46:47.007Z,988.48
2023-03-31T02:47:46.902Z,988.48
2023-03-31T02:48:46.877Z,988.46
2023-03-31T02:49:47.815Z,988.44
2023-03-31T02:50:46.887Z,988.39
2023-03-31T02:51:46.885Z,988.38
2023-03-31T02:52:46.867Z,988.39
2023-03-31T02:53:46.901Z,988.42
2023-03-31T02:54:46.833Z,988.39
2023-03-31T02:55:46.837Z,988.36
2023-03-31T02:56:46.858Z,988.36
2023-03-31T02:57:46.801Z,988.38
2023-03-31T02:58:46.805Z,988.29
2023-03-31T02:59:46.792Z,988.28
2023-03-31T03:00:46.776Z,988.24
2023-03-31T03:01:46.850Z,988.24
2023-03-31T03:02:46.850Z,988.23
2023-03-31T03:03:46.758Z,988.21
2023-03-31T03:04:46.844Z,988.23
2023-03-31T03:05:46.738Z,988.22
2023-03-31T03:06:46.750Z,988.18
2023-03-31T03:07:46.761Z,988.15
2023-03-31T03:08:46.745Z,988.14
2023-03-31T03:09:46.727Z,988.04
2023-03-31T03:10:46.716Z,988.05
2023-03-31T03:11:47.788Z,988.04
2023-03-31T03:12:47.259Z,987.96
2023-03-31T03:13:46.698Z,987.96
2023-03-31T03:14:46.716Z,987.89
2023-03-31T03:15:46.673Z,987.86
2023-03-31T03:16:46.709Z,987.86
2023-03-31T03:17:46.749Z,987.89
2023-03-31T03:18:46.654Z,987.81
2023-03-31T03:19:46.638Z,987.81
2023-03-31T03:20:46.634Z,987.85
2023-03-31T03:21:46.627Z,987.84
2023-03-31T03:22:46.630Z,987.81
2023-03-31T03:23:46.605Z,987.81
2023-03-31T03:24:46.628Z,987.76
2023-03-31T03:25:46.625Z,987.74
2023-03-31T03:26:46.592Z,987.65
2023-03-31T03:27:46.644Z,987.65
2023-03-31T03:28:46.609Z,987.63
2023-03-31T03:29:46.560Z,987.64
2023-03-31T03:30:46.583Z,987.58
2023-03-31T03:31:46.671Z,987.57
2023-03-31T03:32:46.633Z,987.54
2023-03-31T03:33:46.572Z,987.62
2023-03-31T03:34:46.546Z,987.56
2023-03-31T03:35:46.593Z,987.53
2023-03-31T03:36:46.506Z,987.60
2023-03-31T03:37:46.505Z,987.56
2023-03-31T03:38:46.509Z,987.61
2023-03-31T03:39:46.524Z,987.58
2023-03-31T03:40:48.283Z,987.57
2023-03-31T03:41:46.474Z,987.50
2023-03-31T03:42:46.490Z,987.55
2023-03-31T03:43:46.463Z,987.50
2023-03-31T03:44:46.485Z,987.53
2023-03-31T03:45:46.439Z,987.44
2023-03-31T03:46:46.520Z,987.42
2023-03-31T04:03:01.648Z,987.21
2023-03-31T04:04:01.587Z,987.22
2023-03-31T04:05:01.648Z,987.18
2023-03-31T04:06:02.718Z,987.12
2023-03-31T04:07:02.725Z,987.09
2023-03-31T04:08:02.727Z,986.97
2023-03-31T04:09:02.752Z,986.95
2023-03-31T04:10:02.717Z,986.83
2023-03-31T04:11:02.697Z,986.76
2023-03-31T04:12:03.360Z,986.66
2023-03-31T04:13:03.405Z,986.62
2023-03-31T04:14:02.671Z,986.57
2023-03-31T04:15:37.237Z,986.51
2023-03-31T04:16:02.690Z,986.40
2023-03-31T04:17:02.643Z,986.37
2023-03-31T04:18:02.680Z,986.39
2023-03-31T04:19:02.622Z,986.34
2023-03-31T04:20:02.610Z,986.29
2023-03-31T04:21:03.331Z,986.30
2023-03-31T04:22:02.654Z,986.26
2023-03-31T04:23:02.616Z,986.31
2023-03-31T04:24:02.621Z,986.30
2023-03-31T04:25:02.596Z,986.24
2023-03-31T04:26:02.626Z,986.17
2023-03-31T04:27:02.562Z,986.20
2023-03-31T04:28:02.541Z,986.14
2023-03-31T04:29:02.549Z,986.21
2023-03-31T04:30:02.548Z,986.27
2023-03-31T04:31:02.534Z,986.25
2023-03-31T04:32:02.576Z,986.25
2023-03-31T04:33:02.547Z,986.31
2023-03-31T04:34:02.757Z,986.27
2023-03-31T04:35:02.516Z,986.29
2023-03-31T04:36:02.529Z,986.30
2023-03-31T04:37:04.171Z,986.30
2023-03-31T04:38:02.483Z,986.29
2023-03-31T04:39:02.487Z,986.23
2023-03-31T04:40:02.471Z,986.34
2023-03-31T04:41:02.473Z,986.31
2023-03-31T04:42:02.471Z,986.36
2023-03-31T04:43:02.438Z,986.35
2023-03-31T04:44:02.421Z,986.29
2023-03-31T04:45:02.465Z,986.35
2023-03-31T04:46:02.508Z,986.35
2023-03-31T04:47:02.385Z,986.29
2023-03-31T04:48:02.443Z,986.27
2023-03-31T04:49:02.378Z,986.22
2023-03-31T04:50:02.402Z,986.28
2023-03-31T04:51:02.379Z,986.27
2023-03-31T04:52:02.359Z,986.19
2023-03-31T04:53:02.361Z,986.20
2023-03-31T04:54:02.348Z,986.19
2023-03-31T04:55:02.365Z,986.19
2023-03-31T04:56:03.449Z,986.15
2023-03-31T04:57:02.389Z,986.15
2023-03-31T04:58:02.321Z,986.07
2023-03-31T04:59:02.297Z,986.01
2023-03-31T05:00:02.342Z,986.07
2023-03-31T05:01:02.398Z,986.02
2023-03-31T05:02:02.395Z,985.97
2023-03-31T05:03:02.340Z,985.85
2023-03-31T05:04:02.266Z,985.79
2023-03-31T05:05:02.256Z,985.69
2023-03-31T05:06:02.296Z,985.65
2023-03-31T05:07:02.271Z,985.52
2023-03-31T05:08:02.323Z,985.43
2023-03-31T05:09:02.245Z,985.46
2023-03-31T05:10:02.216Z,985.50
2023-03-31T05:11:02.245Z,985.48
2023-03-31T05:12:02.216Z,985.52
2023-03-31T05:13:02.196Z,985.62
2023-03-31T05:14:02.229Z,985.50
2023-03-31T05:15:02.186Z,985.52
2023-03-31T05:16:02.234Z,985.60
2023-03-31T05:17:02.193Z,985.66
2023-03-31T05:18:02.204Z,985.59
2023-03-31T05:19:02.214Z,985.63
2023-03-31T05:20:02.185Z,985.61
2023-03-31T05:21:02.131Z,985.57
2023-03-31T05:22:02.130Z,985.56
2023-03-31T05:23:02.174Z,985.52
2023-03-31T05:24:02.170Z,985.55
2023-03-31T05:25:02.221Z,985.52
2023-03-31T05:26:02.165Z,985.48
2023-03-31T05:27:02.088Z,985.50
2023-03-31T05:28:03.383Z,985.49
2023-03-31T05:29:02.095Z,985.45
2023-03-31T05:30:02.129Z,985.49
2023-03-31T05:31:02.095Z,985.52
2023-03-31T05:32:02.141Z,985.51
2023-03-31T05:33:02.155Z,985.46
2023-03-31T05:34:02.079Z,985.47
2023-03-31T05:35:03.204Z,985.44
2023-03-31T05:36:02.045Z,985.47
2023-03-31T05:37:02.016Z,985.50
2023-03-31T05:38:02.040Z,985.47
2023-03-31T05:39:02.040Z,985.46
2023-03-31T05:40:02.481Z,985.39
2023-03-31T05:41:01.998Z,985.39
2023-03-31T05:42:02.781Z,985.37
2023-03-31T05:43:01.955Z,985.36
2023-03-31T05:44:03.733Z,985.31
2023-03-31T05:45:02.066Z,985.25
2023-03-31T05:46:02.014Z,985.31
2023-03-31T05:47:01.929Z,985.28
2023-03-31T05:48:01.982Z,985.27
2023-03-31T05:49:01.915Z,985.15
2023-03-31T05:50:01.933Z,985.11
2023-03-31T05:51:01.897Z,985.18
2023-03-31T05:52:01.917Z,985.18
2023-03-31T05:53:01.885Z,985.16
2023-03-31T05:54:02.814Z,985.19
2023-03-31T05:55:02.876Z,985.22
2023-03-31T05:56:02.436Z,985.23
2023-03-31T05:57:02.081Z,985.14
2023-03-31T05:58:01.865Z,985.11
2023-03-31T05:59:01.844Z,985.13
2023-03-31T06:00:01.845Z,985.07
2023-03-31T06:01:01.862Z,985.12
2023-03-31T06:02:01.908Z,985.03
2023-03-31T06:03:02.030Z,985.09
2023-03-31T06:04:01.935Z,984.98
2023-03-31T06:05:01.811Z,985.00
2023-03-31T06:06:01.809Z,984.97
2023-03-31T06:07:01.790Z,984.92
2023-03-31T06:08:01.788Z,985.00
2023-03-31T06:09:01.803Z,985.01
2023-03-31T06:10:01.776Z,984.97
2023-03-31T06:11:01.761Z,985.03
2023-03-31T06:12:01.781Z,985.00
2023-03-31T06:13:01.772Z,985.06
2023-03-31T06:14:01.739Z,985.01
2023-03-31T06:15:01.737Z,985.05
2023-03-31T06:16:01.740Z,985.01
2023-03-31T06:17:01.737Z,984.94
2023-03-31T06:18:01.747Z,984.99
2023-03-31T06:19:01.703Z,984.98
2023-03-31T06:20:04.271Z,985.01
2023-03-31T06:21:02.684Z,984.94
2023-03-31T06:22:01.726Z,984.90
2023-03-31T06:23:02.704Z,984.91
2023-03-31T06:24:01.693Z,984.87
2023-03-31T06:25:01.923Z,984.84
2023-03-31T06:26:01.688Z,984.82
2023-03-31T06:27:01.728Z,984.79
2023-03-31T06:28:01.669Z,984.75
2023-03-31T06:29:02.130Z,984.79
2023-03-31T06:30:01.739Z,984.74
2023-03-31T06:31:02.289Z,984.79
2023-03-31T06:32:01.639Z,984.76
2023-03-31T06:33:01.659Z,984.79
2023-03-31T06:34:01.618Z,984.78
2023-03-31T06:35:01.651Z,984.79
2023-03-31T06:36:01.625Z,984.75
2023-03-31T06:37:01.609Z,984.73
2023-03-31T06:38:01.575Z,984.72
2023-03-31T06:39:01.610Z,984.71
2023-03-31T06:40:01.539Z,984.67
2023-03-31T06:41:01.592Z,984.67
2023-03-31T06:42:01.536Z,984.70
2023-03-31T06:43:01.587Z,984.72
2023-03-31T06:44:01.527Z,984.77
2023-03-31T06:45:01.604Z,984.84
2023-03-31T06:46:01.587Z,984.80
2023-03-31T06:47:01.562Z,984.77
2023-03-31T06:48:01.512Z,984.81
2023-03-31T06:49:01.622Z,984.80
2023-03-31T06:50:01.627Z,984.82
2023-03-31T06:51:01.487Z,984.77
2023-03-31T06:52:01.470Z,984.81
2023-03-31T06:53:01.688Z,984.74
2023-03-31T06:54:01.482Z,984.78
2023-03-31T06:55:01.461Z,984.71
2023-03-31T06:56:01.422Z,984.65
2023-03-31T06:57:01.450Z,984.63
2023-03-31T06:58:01.425Z,984.68
2023-03-31T06:59:01.412Z,984.68
2023-03-31T07:00:01.411Z,984.60
2023-03-31T07:01:01.428Z,984.64
2023-03-31T07:02:01.549Z,984.63
2023-03-31T07:03:01.460Z,984.60
2023-03-31T07:04:01.365Z,984.61
2023-03-31T07:05:01.377Z,984.60
2023-03-31T07:06:01.387Z,984.53
2023-03-31T07:07:01.337Z,984.56
2023-03-31T07:08:01.347Z,984.52
2023-03-31T07:09:02.300Z,984.53
2023-03-31T07:10:01.332Z,984.47
2023-03-31T07:11:01.325Z,984.44
2023-03-31T07:12:01.336Z,984.41
2023-03-31T07:13:04.361Z,984.47
2023-03-31T07:14:01.307Z,984.45
2023-03-31T07:15:01.299Z,984.42
2023-03-31T07:16:01.378Z,984.46
2023-03-31T07:17:01.285Z,984.39
2023-03-31T07:18:01.347Z,984.40
2023-03-31T07:19:01.269Z,984.38
2023-03-31T07:20:01.230Z,984.33
2023-03-31T07:21:01.285Z,984.30
2023-03-31T07:22:01.242Z,984.25
2023-03-31T07:23:01.246Z,984.22
2023-03-31T07:24:01.300Z,984.17
2023-03-31T07:25:01.198Z,984.19
2023-03-31T07:26:01.229Z,984.16
2023-03-31T07:27:01.221Z,984.11
2023-03-31T07:28:01.160Z,984.15
2023-03-31T07:29:01.169Z,984.05
2023-03-31T07:30:36.890Z,984.11
2023-03-31T07:31:01.151Z,984.02
2023-03-31T07:32:01.213Z,984.01
2023-03-31T07:33:01.212Z,984.02
2023-03-31T07:34:01.107Z,984.03
2023-03-31T07:35:01.109Z,983.96
2023-03-31T07:36:11.568Z,983.88
2023-03-31T07:37:03.129Z,983.94
2023-03-31T07:38:01.090Z,983.93
2023-03-31T07:39:01.103Z,983.83
2023-03-31T07:40:01.138Z,983.89
2023-03-31T07:41:08.383Z,983.84
2023-03-31T07:42:03.071Z,983.80
2023-03-31T07:43:01.068Z,983.83
2023-03-31T07:44:01.085Z,983.84
2023-03-31T07:45:01.022Z,983.81
2023-03-31T07:46:01.085Z,983.83
2023-03-31T07:47:01.026Z,983.89
2023-03-31T07:48:01.073Z,983.77
2023-03-31T07:49:01.002Z,983.84
2023-03-31T07:50:01.959Z,983.80
2023-03-31T07:51:01.008Z,983.84
2023-03-31T07:52:00.985Z,983.81
2023-03-31T07:53:00.983Z,983.83
2023-03-31T07:54:01.033Z,983.78
2023-03-31T07:55:00.957Z,983.78
2023-03-31T07:56:00.959Z,983.75
2023-03-31T07:57:00.982Z,983.87
2023-03-31T07:58:00.948Z,983.86
2023-03-31T07:59:00.938Z,983.77
2023-03-31T08:00:00.945Z,983.82
2023-03-31T08:01:00.917Z,983.81
2023-03-31T08:02:01.028Z,983.71
2023-03-31T08:03:00.975Z,983.66
2023-03-31T08:04:01.022Z,983.73
2023-03-31T08:05:00.900Z,983.66
2023-03-31T08:06:00.955Z,983.66
2023-03-31T08:07:00.911Z,983.64
2023-03-31T08:08:00.940Z,983.63
2023-03-31T08:09:00.906Z,983.57
2023-03-31T08:10:00.905Z,983.69
2023-03-31T08:11:00.927Z,983.60
2023-03-31T08:12:00.864Z,983.61
2023-03-31T08:13:00.827Z,983.62
2023-03-31T08:14:00.824Z,983.60
2023-03-31T08:15:00.827Z,983.52
2023-03-31T08:16:00.892Z,983.52
2023-03-31T08:17:00.798Z,983.53
2023-03-31T08:18:00.819Z,983.53
2023-03-31T08:19:00.790Z,983.43
2023-03-31T08:20:06.105Z,983.38
2023-03-31T08:21:02.778Z,983.49
2023-03-31T08:22:00.804Z,983.39
2023-03-31T08:23:00.737Z,983.35
2023-03-31T08:24:00.813Z,983.37
2023-03-31T08:25:00.805Z,983.36
2023-03-31T08:26:00.734Z,983.35
2023-03-31T08:27:00.757Z,983.34
2023-03-31T08:28:00.725Z,983.35
2023-03-31T08:29:00.774Z,983.31
2023-03-31T08:30:01.730Z,983.29
2023-03-31T08:31:00.693Z,983.38
2023-03-31T08:32:00.724Z,983.27
2023-03-31T08:33:00.794Z,983.24
2023-03-31T08:34:00.691Z,983.21
2023-03-31T08:35:01.396Z,983.19
2023-03-31T08:36:00.681Z,983.06
2023-03-31T08:37:00.667Z,983.06
2023-03-31T08:38:00.724Z,982.98
2023-03-31T08:39:00.631Z,983.01
2023-03-31T08:40:00.676Z,983.02
2023-03-31T08:41:00.624Z,983.02
2023-03-31T08:42:00.619Z,983.10
2023-03-31T08:43:00.615Z,983.15
2023-03-31T08:44:01.314Z,983.12
2023-03-31T08:45:00.559Z,983.07
2023-03-31T08:46:00.629Z,983.04
2023-03-31T08:47:00.603Z,982.98
2023-03-31T08:48:00.572Z,982.92
2023-03-31T08:49:00.601Z,982.93
2023-03-31T08:50:00.551Z,982.88
2023-03-31T08:51:00.530Z,982.85
2023-03-31T08:52:00.534Z,982.86
2023-03-31T08:53:00.538Z,982.86
2023-03-31T08:54:00.516Z,982.83
2023-03-31T08:55:00.550Z,982.82
2023-03-31T08:56:00.544Z,982.71
2023-03-31T08:57:00.574Z,982.64
2023-03-31T08:58:00.490Z,982.72
2023-03-31T08:59:00.504Z,982.69
2023-03-31T09:00:00.488Z,982.67
2023-03-31T09:01:00.510Z,982.66
2023-03-31T09:02:00.519Z,982.71
2023-03-31T09:03:00.576Z,982.61
2023-03-31T09:04:00.652Z,982.57
2023-03-31T09:05:00.538Z,982.46
2023-03-31T09:06:12.686Z,982.39
2023-03-31T09:07:02.436Z,982.39
2023-03-31T09:08:00.424Z,982.36
2023-03-31T09:09:00.395Z,982.33
2023-03-31T09:10:00.461Z,982.37
2023-03-31T09:11:00.404Z,982.29
2023-03-31T09:12:01.375Z,982.25
2023-03-31T09:13:00.374Z,982.23
2023-03-31T09:14:00.398Z,982.28
2023-03-31T09:15:00.366Z,982.22
2023-03-31T09:16:00.401Z,982.22
2023-03-31T09:17:00.393Z,982.25
2023-03-31T09:18:00.347Z,982.18
2023-03-31T09:19:00.342Z,982.20
2023-03-31T09:20:00.306Z,982.19
2023-03-31T09:21:00.332Z,982.15
2023-03-31T09:22:00.319Z,982.16
2023-03-31T09:23:00.328Z,982.09
2023-03-31T09:24:00.338Z,982.11
2023-03-31T09:25:00.296Z,982.05
2023-03-31T09:26:00.844Z,982.04
2023-03-31T09:27:00.283Z,982.10
2023-03-31T09:28:00.262Z,982.07
2023-03-31T09:29:00.305Z,982.09
2023-03-31T09:30:00.286Z,982.02
2023-03-31T09:31:00.257Z,982.06
2023-03-31T09:32:00.321Z,982.00
2023-03-31T09:33:00.226Z,982.04
2023-03-31T09:34:00.262Z,982.00
2023-03-31T09:35:00.222Z,981.94
2023-03-31T09:36:00.262Z,981.94
2023-03-31T09:37:00.255Z,981.83
2023-03-31T09:38:01.265Z,981.87
2023-03-31T09:39:00.223Z,981.84
2023-03-31T09:40:00.237Z,981.87
2023-03-31T09:41:00.241Z,981.79
2023-03-31T09:42:00.176Z,981.72
2023-03-31T09:43:00.188Z,981.67
2023-03-31T09:44:00.181Z,981.67
2023-03-31T09:45:00.173Z,981.57
2023-03-31T09:46:08.553Z,981.52
2023-03-31T09:47:02.158Z,981.54
2023-03-31T09:48:00.245Z,981.47
2023-03-31T09:49:00.158Z,981.41
2023-03-31T09:50:00.264Z,981.23
2023-03-31T09:51:00.136Z,981.13
2023-03-31T09:52:00.084Z,981.05
2023-03-31T09:53:00.136Z,980.96
2023-03-31T09:54:01.078Z,980.97
2023-03-31T09:55:00.104Z,980.89
2023-03-31T09:56:00.137Z,980.83
2023-03-31T09:57:00.098Z,980.78
2023-03-31T09:58:00.131Z,980.76
2023-03-31T09:59:00.192Z,980.73
2023-03-31T09:59:59.999Z,980.73
2023-03-31T10:01:00.052Z,980.72
2023-03-31T10:02:00.197Z,980.64
2023-03-31T10:03:00.052Z,980.65
2023-03-31T10:04:00.002Z,980.55
2023-03-31T10:04:59.986Z,980.59
2023-03-31T10:05:59.985Z,980.52
2023-03-31T10:06:59.938Z,980.62
2023-03-31T10:07:59.923Z,980.53
2023-03-31T10:08:59.933Z,980.53
2023-03-31T10:09:59.984Z,980.54
2023-03-31T10:10:59.928Z,980.51
2023-03-31T10:11:59.925Z,980.56
2023-03-31T10:12:59.948Z,980.59
2023-03-31T10:13:59.979Z,980.48
2023-03-31T10:14:59.954Z,980.51
2023-03-31T10:15:59.909Z,980.47
2023-03-31T10:16:59.913Z,980.48
2023-03-31T10:17:59.900Z,980.52
2023-03-31T10:18:59.910Z,980.65
2023-03-31T10:19:59.874Z,980.61
2023-03-31T10:20:59.834Z,980.67
2023-03-31T10:21:59.829Z,980.62
2023-03-31T10:22:59.822Z,980.69
2023-03-31T10:23:59.815Z,980.65
2023-03-31T10:25:00.018Z,980.61
2023-03-31T10:25:59.833Z,980.65
2023-03-31T10:27:01.025Z,980.61
2023-03-31T10:27:59.777Z,980.72
2023-03-31T10:28:59.770Z,980.75
2023-03-31T10:29:59.839Z,980.66
2023-03-31T10:30:59.763Z,980.63
2023-03-31T10:31:59.797Z,980.73
2023-03-31T10:34:00.701Z,980.70
2023-03-31T10:34:59.720Z,980.70
2023-03-31T10:35:59.821Z,980.72
2023-03-31T10:36:59.730Z,980.68
2023-03-31T10:37:59.726Z,980.68
2023-03-31T10:38:59.703Z,980.68
2023-03-31T10:39:59.767Z,980.70
2023-03-31T10:40:59.835Z,980.61
2023-03-31T10:41:59.701Z,980.55
2023-03-31T10:42:59.683Z,980.54
2023-03-31T10:43:59.669Z,980.55
2023-03-31T10:44:59.676Z,980.52
2023-03-31T10:45:59.678Z,980.49
2023-03-31T10:46:59.734Z,980.55
2023-03-31T10:47:59.682Z,980.49
2023-03-31T10:48:59.609Z,980.45
2023-03-31T10:50:00.618Z,980.49
2023-03-31T10:50:59.601Z,980.47
2023-03-31T10:51:59.581Z,980.47
2023-03-31T10:52:59.637Z,980.38
2023-03-31T10:53:59.590Z,980.55
2023-03-31T10:54:59.659Z,980.54
2023-03-31T10:55:59.667Z,980.46
2023-03-31T10:56:59.672Z,980.51
2023-03-31T10:57:59.558Z,980.44
2023-03-31T10:59:05.642Z,980.48
2023-03-31T11:00:01.516Z,980.48
2023-03-31T11:00:59.522Z,980.52
2023-03-31T11:02:00.588Z,980.50
2023-03-31T11:03:01.169Z,980.51
2023-03-31T11:03:59.600Z,980.40
2023-03-31T11:04:59.529Z,980.48
2023-03-31T11:05:59.520Z,980.50
2023-03-31T11:06:59.474Z,980.65
2023-03-31T11:07:59.461Z,980.69
2023-03-31T11:08:59.457Z,980.71
2023-03-31T11:09:59.457Z,980.56
2023-03-31T11:10:59.450Z,980.68
2023-03-31T11:11:59.963Z,980.65
2023-03-31T11:13:00.000Z,980.66
2023-03-31T11:13:59.457Z,980.65
2023-03-31T11:14:59.452Z,980.65
2023-03-31T11:15:59.474Z,980.59
2023-03-31T11:16:59.441Z,980.75
2023-03-31T11:17:59.403Z,980.71
2023-03-31T11:18:59.399Z,980.67
2023-03-31T11:19:59.415Z,980.75
2023-03-31T11:20:59.411Z,980.77
2023-03-31T11:21:59.998Z,980.80
2023-03-31T11:22:59.373Z,980.71
2023-03-31T11:23:59.354Z,980.58
2023-03-31T11:24:59.360Z,980.78
2023-03-31T11:25:59.351Z,980.87
2023-03-31T11:26:59.336Z,980.70
2023-03-31T11:28:00.364Z,980.74
2023-03-31T11:28:59.359Z,980.74
2023-03-31T11:29:59.298Z,980.75
2023-03-31T11:30:59.318Z,980.71
2023-03-31T11:31:59.379Z,980.72
2023-03-31T11:32:59.299Z,980.61
2023-03-31T11:33:59.268Z,980.59
2023-03-31T11:34:59.281Z,980.48
2023-03-31T11:35:59.304Z,980.45
2023-03-31T11:36:59.319Z,980.42
2023-03-31T11:37:59.215Z,980.40
2023-03-31T11:38:59.240Z,980.43
2023-03-31T11:39:59.256Z,980.40
2023-03-31T11:40:59.216Z,980.35
2023-03-31T11:41:59.249Z,980.29
2023-03-31T11:42:59.243Z,980.41
2023-03-31T11:43:59.187Z,980.38
2023-03-31T11:44:59.182Z,980.37
2023-03-31T11:45:59.206Z,980.32
2023-03-31T11:46:59.282Z,980.33
2023-03-31T11:47:59.281Z,980.38
2023-03-31T11:48:59.202Z,980.40
2023-03-31T11:50:00.006Z,980.37
2023-03-31T11:50:59.149Z,980.36
2023-03-31T11:51:59.124Z,980.41
2023-03-31T11:52:59.145Z,980.50
2023-03-31T11:53:59.095Z,980.41
2023-03-31T11:55:01.464Z,980.44
2023-03-31T11:55:59.150Z,980.44
2023-03-31T11:56:59.094Z,980.37
2023-03-31T11:57:59.108Z,980.47
2023-03-31T11:58:59.092Z,980.58
2023-03-31T11:59:59.118Z,980.56
2023-03-31T12:01:00.666Z,980.51
2023-03-31T12:01:59.111Z,980.48
2023-03-31T12:02:59.098Z,980.64
2023-03-31T12:03:59.127Z,980.51
2023-03-31T12:04:59.032Z,980.47
2023-03-31T12:05:59.068Z,980.50
2023-03-31T12:07:00.673Z,980.62
2023-03-31T12:07:58.989Z,980.58
2023-03-31T12:08:58.964Z,980.68
2023-03-31T12:09:59.009Z,980.60
2023-03-31T12:10:59.033Z,980.66
2023-03-31T12:11:59.010Z,980.78
2023-03-31T12:13:01.146Z,980.73
2023-03-31T12:13:58.958Z,980.72
2023-03-31T12:14:59.012Z,980.78
2023-03-31T12:15:58.968Z,980.83
2023-03-31T12:16:58.977Z,980.81
2023-03-31T12:17:59.008Z,980.97
2023-03-31T12:18:58.903Z,980.91
2023-03-31T12:19:58.949Z,980.88
2023-03-31T12:20:58.923Z,980.99
2023-03-31T12:21:58.887Z,980.94
2023-03-31T12:22:58.925Z,981.08
2023-03-31T12:23:59.431Z,981.02
2023-03-31T12:24:58.842Z,980.98
2023-03-31T12:25:58.900Z,980.99
2023-03-31T12:26:58.841Z,981.02
2023-03-31T12:27:58.870Z,980.98
2023-03-31T12:28:58.799Z,981.01
2023-03-31T12:29:58.800Z,981.04
2023-03-31T12:30:58.871Z,981.00
2023-03-31T12:31:58.782Z,980.94
2023-03-31T12:32:58.834Z,980.96
2023-03-31T12:33:58.817Z,980.89
2023-03-31T12:34:58.776Z,980.94
2023-03-31T12:35:58.885Z,980.96
2023-03-31T12:36:58.769Z,980.92
2023-03-31T12:37:58.766Z,980.96
2023-03-31T12:38:58.755Z,980.81
2023-03-31T12:39:58.764Z,980.76
2023-03-31T12:40:58.759Z,980.62
2023-03-31T12:41:58.764Z,980.62
2023-03-31T12:42:58.761Z,980.75
2023-03-31T12:43:58.742Z,980.76
2023-03-31T12:44:58.686Z,980.74